sensor_id;sensor_type;location;lat;lon;timestamp;pressure;altitude;pressure_sealevel;temperature;humidity
65280;BME280;51878;55.748;48.742;2022-11-15T00:01:16;98316.72;;;-6.47;91.03
65280;BME280;51878;55.748;48.742;2022-11-15T00:03:44;98308.91;;;-6.48;92.70
65280;BME280;51878;55.748;48.742;2022-11-15T00:06:12;98362.00;;;-6.16;92.70
65280;BME280;51878;55.748;48.742;2022-11-15T00:08:40;98368.66;;;-6.10;93.92
65280;BME280;51878;55.748;48.742;2022-11-15T00:11:10;98314.78;;;-6.32;94.56
65280;BME280;51878;55.748;48.742;2022-11-15T00:13:38;98367.50;;;-6.19;93.20
65280;BME280;51878;55.748;48.742;2022-11-15T00:16:06;98307.88;;;-6.46;93.36
65280;BME280;51878;55.748;48.742;2022-11-15T00:18:33;98382.28;;;-6.16;92.86
65280;BME280;51878;55.748;48.742;2022-11-15T00:21:05;98401.56;;;-6.03;92.51
65280;BME280;51878;55.748;48.742;2022-11-15T00:23:33;98331.13;;;-6.39;92.40
65280;BME280;51878;55.748;48.742;2022-11-15T00:26:01;98328.97;;;-6.46;92.26
65280;BME280;51878;55.748;48.742;2022-11-15T00:28:28;98392.41;;;-6.10;92.37
65280;BME280;51878;55.748;48.742;2022-11-15T00:31:06;98401.88;;;-6.08;92.68
65280;BME280;51878;55.748;48.742;2022-11-15T00:33:34;98373.72;;;-6.20;93.85
65280;BME280;51878;55.748;48.742;2022-11-15T00:36:06;98387.72;;;-6.07;96.27
65280;BME280;51878;55.748;48.742;2022-11-15T00:38:35;98373.97;;;-6.49;99.66
65280;BME280;51878;55.748;48.742;2022-11-15T00:41:03;98374.19;;;-6.39;100.00
65280;BME280;51878;55.748;48.742;2022-11-15T00:43:35;98394.09;;;-6.22;100.00
65280;BME280;51878;55.748;48.742;2022-11-15T00:46:02;98393.03;;;-6.19;100.00
65280;BME280;51878;55.748;48.742;2022-11-15T00:48:29;98401.91;;;-6.20;100.00
65280;BME280;51878;55.748;48.742;2022-11-15T00:50:57;98349.72;;;-6.54;100.00
65280;BME280;51878;55.748;48.742;2022-11-15T00:53:24;98296.00;;;-6.90;100.00
65280;BME280;51878;55.748;48.742;2022-11-15T00:55:52;98401.56;;;-6.16;100.00
65280;BME280;51878;55.748;48.742;2022-11-15T00:58:19;98314.13;;;-6.85;99.64
65280;BME280;51878;55.748;48.742;2022-11-15T01:00:46;98359.94;;;-6.49;100.00
65280;BME280;51878;55.748;48.742;2022-11-15T01:03:13;98421.59;;;-6.13;100.00
65280;BME280;51878;55.748;48.742;2022-11-15T01:05:40;98236.16;;;-7.26;99.65
65280;BME280;51878;55.748;48.742;2022-11-15T01:08:12;98393.38;;;-6.50;99.40
65280;BME280;51878;55.748;48.742;2022-11-15T01:10:40;98395.28;;;-6.52;98.98
65280;BME280;51878;55.748;48.742;2022-11-15T01:13:07;98422.16;;;-6.34;98.61
65280;BME280;51878;55.748;48.742;2022-11-15T01:15:34;98379.97;;;-6.59;96.36
65280;BME280;51878;55.748;48.742;2022-11-15T01:18:05;98382.50;;;-6.45;96.69
65280;BME280;51878;55.748;48.742;2022-11-15T01:20:32;98405.28;;;-6.31;95.36
65280;BME280;51878;55.748;48.742;2022-11-15T01:22:59;98353.94;;;-6.51;94.61
65280;BME280;51878;55.748;48.742;2022-11-15T01:25:26;98431.97;;;-6.10;91.84
65280;BME280;51878;55.748;48.742;2022-11-15T01:27:53;98418.88;;;-6.12;92.08
65280;BME280;51878;55.748;48.742;2022-11-15T01:30:20;98419.84;;;-6.13;92.44
65280;BME280;51878;55.748;48.742;2022-11-15T01:32:47;98432.91;;;-6.11;92.02
65280;BME280;51878;55.748;48.742;2022-11-15T01:35:14;98314.22;;;-6.87;91.19
65280;BME280;51878;55.748;48.742;2022-11-15T01:37:41;98383.91;;;-6.52;92.42
65280;BME280;51878;55.748;48.742;2022-11-15T01:40:09;98376.50;;;-6.47;91.68
65280;BME280;51878;55.748;48.742;2022-11-15T01:42:36;98383.25;;;-6.56;91.37
65280;BME280;51878;55.748;48.742;2022-11-15T01:45:03;98386.81;;;-6.44;91.53
65280;BME280;51878;55.748;48.742;2022-11-15T01:47:34;98423.72;;;-6.31;91.77
65280;BME280;51878;55.748;48.742;2022-11-15T01:50:06;98432.47;;;-6.18;90.58
65280;BME280;51878;55.748;48.742;2022-11-15T01:52:35;98398.75;;;-6.38;89.02
65280;BME280;51878;55.748;48.742;2022-11-15T01:55:23;98444.59;;;-6.15;87.70
65280;BME280;51878;55.748;48.742;2022-11-15T01:57:55;98407.50;;;-6.25;87.06
65280;BME280;51878;55.748;48.742;2022-11-15T02:00:23;98372.50;;;-6.53;86.31
65280;BME280;51878;55.748;48.742;2022-11-15T02:02:50;98434.38;;;-6.07;85.51
65280;BME280;51878;55.748;48.742;2022-11-15T02:05:17;98426.59;;;-6.21;83.60
65280;BME280;51878;55.748;48.742;2022-11-15T02:07:45;98418.69;;;-6.21;81.91
65280;BME280;51878;55.748;48.742;2022-11-15T02:10:17;98427.84;;;-6.14;80.60
65280;BME280;51878;55.748;48.742;2022-11-15T02:12:45;98430.69;;;-6.17;80.93
65280;BME280;51878;55.748;48.742;2022-11-15T02:15:13;98436.06;;;-6.06;80.95
65280;BME280;51878;55.748;48.742;2022-11-15T02:35:08;98446.22;;;-6.13;83.63
65280;BME280;51878;55.748;48.742;2022-11-15T02:43:09;98370.91;;;-6.55;83.54
65280;BME280;51878;55.748;48.742;2022-11-15T02:46:04;98443.03;;;-6.18;83.20
65280;BME280;51878;55.748;48.742;2022-11-15T02:48:35;98441.03;;;-6.14;83.59
65280;BME280;51878;55.748;48.742;2022-11-15T02:51:03;98292.28;;;-7.13;84.08
65280;BME280;51878;55.748;48.742;2022-11-15T02:53:36;98457.06;;;-6.05;83.73
65280;BME280;51878;55.748;48.742;2022-11-15T02:59:21;98462.56;;;-6.08;84.54
65280;BME280;51878;55.748;48.742;2022-11-15T03:02:27;98398.09;;;-6.42;82.45
65280;BME280;51878;55.748;48.742;2022-11-15T03:08:06;98468.16;;;-5.99;83.40
65280;BME280;51878;55.748;48.742;2022-11-15T03:11:09;98405.81;;;-6.39;81.92
65280;BME280;51878;55.748;48.742;2022-11-15T03:13:56;98485.75;;;-6.00;81.29
65280;BME280;51878;55.748;48.742;2022-11-15T03:16:38;98418.56;;;-6.33;81.91
65280;BME280;51878;55.748;48.742;2022-11-15T03:19:13;98433.22;;;-6.16;81.82
65280;BME280;51878;55.748;48.742;2022-11-15T03:21:42;98370.59;;;-6.51;81.24
65280;BME280;51878;55.748;48.742;2022-11-15T03:24:12;98399.69;;;-6.39;80.87
65280;BME280;51878;55.748;48.742;2022-11-15T03:26:41;98413.28;;;-6.33;80.26
65280;BME280;51878;55.748;48.742;2022-11-15T03:29:16;98459.16;;;-5.97;80.04
65280;BME280;51878;55.748;48.742;2022-11-15T03:31:46;98488.28;;;-5.98;79.96
65280;BME280;51878;55.748;48.742;2022-11-15T03:34:37;98488.44;;;-5.89;80.65
65280;BME280;51878;55.748;48.742;2022-11-15T03:37:07;98485.72;;;-5.87;80.59
65280;BME280;51878;55.748;48.742;2022-11-15T03:39:35;98466.56;;;-6.15;79.84
65280;BME280;51878;55.748;48.742;2022-11-15T03:47:12;98497.22;;;-5.88;80.17
65280;BME280;51878;55.748;48.742;2022-11-15T03:49:46;98475.75;;;-6.20;80.40
65280;BME280;51878;55.748;48.742;2022-11-15T03:52:18;98450.75;;;-6.28;80.79
65280;BME280;51878;55.748;48.742;2022-11-15T03:54:56;98474.78;;;-6.07;81.30
65280;BME280;51878;55.748;48.742;2022-11-15T03:57:23;98494.63;;;-6.01;81.12
65280;BME280;51878;55.748;48.742;2022-11-15T03:59:50;98469.22;;;-6.28;81.87
65280;BME280;51878;55.748;48.742;2022-11-15T04:02:18;98503.06;;;-6.09;81.99
65280;BME280;51878;55.748;48.742;2022-11-15T04:04:45;98456.09;;;-6.42;83.37
65280;BME280;51878;55.748;48.742;2022-11-15T04:07:12;98516.34;;;-5.97;83.20
65280;BME280;51878;55.748;48.742;2022-11-15T04:09:39;98452.41;;;-6.39;83.52
65280;BME280;51878;55.748;48.742;2022-11-15T04:12:26;98521.00;;;-6.01;83.97
65280;BME280;51878;55.748;48.742;2022-11-15T04:15:06;98536.09;;;-6.16;84.03
65280;BME280;51878;55.748;48.742;2022-11-15T04:20:20;98460.94;;;-6.49;83.01
65280;BME280;51878;55.748;48.742;2022-11-15T04:23:11;98467.59;;;-6.56;83.93
65280;BME280;51878;55.748;48.742;2022-11-15T04:25:59;98532.91;;;-6.21;84.31
65280;BME280;51878;55.748;48.742;2022-11-15T04:28:27;98464.31;;;-6.59;85.22
65280;BME280;51878;55.748;48.742;2022-11-15T04:30:54;98527.34;;;-6.16;85.30
65280;BME280;51878;55.748;48.742;2022-11-15T04:33:22;98516.44;;;-6.25;85.50
65280;BME280;51878;55.748;48.742;2022-11-15T04:35:49;98464.75;;;-6.66;85.60
65280;BME280;51878;55.748;48.742;2022-11-15T04:38:36;98518.66;;;-6.31;84.87
65280;BME280;51878;55.748;48.742;2022-11-15T04:41:03;98526.38;;;-6.15;84.75
65280;BME280;51878;55.748;48.742;2022-11-15T04:43:30;98522.00;;;-6.42;84.63
65280;BME280;51878;55.748;48.742;2022-11-15T04:45:58;98534.16;;;-6.27;84.87
65280;BME280;51878;55.748;48.742;2022-11-15T04:48:25;98533.97;;;-6.36;85.56
65280;BME280;51878;55.748;48.742;2022-11-15T04:50:52;98549.78;;;-6.11;85.04
65280;BME280;51878;55.748;48.742;2022-11-15T04:53:19;98549.78;;;-6.11;85.58
65280;BME280;51878;55.748;48.742;2022-11-15T04:55:46;98542.84;;;-5.99;85.45
65280;BME280;51878;55.748;48.742;2022-11-15T04:58:13;98531.03;;;-6.06;84.61
65280;BME280;51878;55.748;48.742;2022-11-15T05:00:40;98550.63;;;-5.97;85.33
65280;BME280;51878;55.748;48.742;2022-11-15T05:03:08;98394.81;;;-6.84;85.09
65280;BME280;51878;55.748;48.742;2022-11-15T05:05:58;98498.97;;;-6.13;84.88
65280;BME280;51878;55.748;48.742;2022-11-15T05:08:26;98509.50;;;-6.00;84.81
65280;BME280;51878;55.748;48.742;2022-11-15T05:10:53;98484.69;;;-5.97;84.27
65280;BME280;51878;55.748;48.742;2022-11-15T05:13:20;98539.22;;;-5.59;83.97
65280;BME280;51878;55.748;48.742;2022-11-15T05:15:47;98471.09;;;-5.54;81.97
65280;BME280;51878;55.748;48.742;2022-11-15T05:18:14;98498.66;;;-5.22;80.44
65280;BME280;51878;55.748;48.742;2022-11-15T05:20:46;98374.03;;;-6.12;81.35
65280;BME280;51878;55.748;48.742;2022-11-15T05:23:13;98540.13;;;-5.35;82.98
65280;BME280;51878;55.748;48.742;2022-11-15T05:25:40;98537.31;;;-5.57;83.55
65280;BME280;51878;55.748;48.742;2022-11-15T05:28:07;98549.13;;;-5.63;86.28
65280;BME280;51878;55.748;48.742;2022-11-15T05:30:34;98459.81;;;-6.32;87.61
65280;BME280;51878;55.748;48.742;2022-11-15T05:33:01;98503.63;;;-5.67;87.82
65280;BME280;51878;55.748;48.742;2022-11-15T05:35:36;98554.50;;;-5.39;86.21
65280;BME280;51878;55.748;48.742;2022-11-15T05:38:14;98549.22;;;-5.39;86.61
65280;BME280;51878;55.748;48.742;2022-11-15T05:40:41;98547.81;;;-5.45;87.19
65280;BME280;51878;55.748;48.742;2022-11-15T05:43:10;98515.16;;;-5.81;88.81
65280;BME280;51878;55.748;48.742;2022-11-15T05:45:37;98572.25;;;-5.41;88.53
65280;BME280;51878;55.748;48.742;2022-11-15T05:48:06;98587.00;;;-5.26;89.47
65280;BME280;51878;55.748;48.742;2022-11-15T05:50:36;98504.28;;;-5.76;89.32
65280;BME280;51878;55.748;48.742;2022-11-15T05:53:05;98554.41;;;-5.63;89.95
65280;BME280;51878;55.748;48.742;2022-11-15T05:55:32;98510.63;;;-5.78;91.38
65280;BME280;51878;55.748;48.742;2022-11-15T05:58:00;98586.81;;;-5.35;92.02
65280;BME280;51878;55.748;48.742;2022-11-15T06:00:28;98570.91;;;-5.72;93.90
65280;BME280;51878;55.748;48.742;2022-11-15T06:02:56;98585.25;;;-5.76;96.83
65280;BME280;51878;55.748;48.742;2022-11-15T06:05:23;98538.91;;;-5.81;97.14
65280;BME280;51878;55.748;48.742;2022-11-15T06:07:50;98525.88;;;-5.58;96.03
65280;BME280;51878;55.748;48.742;2022-11-15T06:10:17;98520.06;;;-3.38;88.38
65280;BME280;51878;55.748;48.742;2022-11-15T06:12:44;98549.56;;;-2.65;81.85
65280;BME280;51878;55.748;48.742;2022-11-15T06:15:14;98551.25;;;-3.30;79.08
65280;BME280;51878;55.748;48.742;2022-11-15T06:17:41;98528.78;;;-0.45;72.12
65280;BME280;51878;55.748;48.742;2022-11-15T06:20:08;98600.41;;;1.84;63.19
65280;BME280;51878;55.748;48.742;2022-11-15T06:22:36;98604.78;;;4.33;56.79
65280;BME280;51878;55.748;48.742;2022-11-15T06:25:03;98576.66;;;5.49;49.07
65280;BME280;51878;55.748;48.742;2022-11-15T06:27:31;98602.28;;;4.40;47.66
65280;BME280;51878;55.748;48.742;2022-11-15T06:29:58;98595.09;;;5.84;45.89
65280;BME280;51878;55.748;48.742;2022-11-15T06:32:25;98555.41;;;5.31;42.81
65280;BME280;51878;55.748;48.742;2022-11-15T06:34:52;98432.22;;;6.19;41.13
65280;BME280;51878;55.748;48.742;2022-11-15T06:37:19;98593.63;;;6.88;40.25
65280;BME280;51878;55.748;48.742;2022-11-15T06:39:46;98532.28;;;6.75;39.18
65280;BME280;51878;55.748;48.742;2022-11-15T06:42:13;98548.16;;;7.66;37.16
65280;BME280;51878;55.748;48.742;2022-11-15T06:44:40;98580.16;;;4.30;40.83
65280;BME280;51878;55.748;48.742;2022-11-15T06:47:07;98544.53;;;6.25;38.27
65280;BME280;51878;55.748;48.742;2022-11-15T06:49:34;98544.53;;;4.61;39.84
65280;BME280;51878;55.748;48.742;2022-11-15T06:52:04;98625.22;;;4.02;42.26
65280;BME280;51878;55.748;48.742;2022-11-15T06:54:31;98619.13;;;5.54;39.85
65280;BME280;51878;55.748;48.742;2022-11-15T06:56:58;98543.09;;;4.01;40.60
65280;BME280;51878;55.748;48.742;2022-11-15T06:59:25;98624.06;;;4.45;40.51
65280;BME280;51878;55.748;48.742;2022-11-15T07:01:52;98563.13;;;2.44;45.61
65280;BME280;51878;55.748;48.742;2022-11-15T07:04:22;98601.06;;;2.22;46.08
65280;BME280;51878;55.748;48.742;2022-11-15T07:06:49;98519.50;;;0.08;50.43
65280;BME280;51878;55.748;48.742;2022-11-15T07:09:16;98626.34;;;0.34;51.24
65280;BME280;51878;55.748;48.742;2022-11-15T07:11:43;98567.56;;;-0.72;52.32
65280;BME280;51878;55.748;48.742;2022-11-15T07:14:10;98628.19;;;-0.06;52.24
65280;BME280;51878;55.748;48.742;2022-11-15T07:16:37;98493.72;;;-2.64;56.63
65280;BME280;51878;55.748;48.742;2022-11-15T07:19:04;98520.63;;;-2.15;58.30
65280;BME280;51878;55.748;48.742;2022-11-15T07:21:32;98616.88;;;-2.89;61.37
65280;BME280;51878;55.748;48.742;2022-11-15T07:23:59;98592.66;;;-3.07;62.96
65280;BME280;51878;55.748;48.742;2022-11-15T07:26:26;98584.25;;;-3.46;63.80
65280;BME280;51878;55.748;48.742;2022-11-15T07:28:53;98591.97;;;-4.01;64.78
65280;BME280;51878;55.748;48.742;2022-11-15T07:31:21;98581.56;;;-3.68;66.54
65280;BME280;51878;55.748;48.742;2022-11-15T07:33:49;98572.03;;;-3.82;67.11
65280;BME280;51878;55.748;48.742;2022-11-15T07:36:16;98602.31;;;-4.33;69.57
65280;BME280;51878;55.748;48.742;2022-11-15T07:38:43;98646.97;;;-3.93;70.88
65280;BME280;51878;55.748;48.742;2022-11-15T07:41:10;98654.03;;;-4.05;71.14
65280;BME280;51878;55.748;48.742;2022-11-15T07:43:37;98669.81;;;-3.68;72.60
65280;BME280;51878;55.748;48.742;2022-11-15T07:46:08;98575.31;;;-4.25;71.16
65280;BME280;51878;55.748;48.742;2022-11-15T07:48:37;98682.47;;;-4.20;72.84
65280;BME280;51878;55.748;48.742;2022-11-15T07:51:15;98666.47;;;-3.94;71.87
65280;BME280;51878;55.748;48.742;2022-11-15T07:53:43;98598.63;;;-4.19;70.61
65280;BME280;51878;55.748;48.742;2022-11-15T07:56:13;98660.91;;;-4.02;71.86
65280;BME280;51878;55.748;48.742;2022-11-15T07:58:41;98672.66;;;-3.82;71.52
65280;BME280;51878;55.748;48.742;2022-11-15T08:01:10;98677.69;;;-4.15;71.34
65280;BME280;51878;55.748;48.742;2022-11-15T08:03:38;98656.38;;;-3.89;70.13
65280;BME280;51878;55.748;48.742;2022-11-15T08:06:08;98656.28;;;-3.18;66.47
65280;BME280;51878;55.748;48.742;2022-11-15T08:08:35;98664.28;;;-2.41;64.24
65280;BME280;51878;55.748;48.742;2022-11-15T08:11:02;98667.28;;;-2.78;63.67
65280;BME280;51878;55.748;48.742;2022-11-15T08:13:29;98673.53;;;-3.13;63.37
65280;BME280;51878;55.748;48.742;2022-11-15T08:16:00;98671.84;;;-2.68;62.05
65280;BME280;51878;55.748;48.742;2022-11-15T08:18:28;98613.03;;;-3.41;63.24
65280;BME280;51878;55.748;48.742;2022-11-15T08:20:58;98671.38;;;-3.77;64.76
65280;BME280;51878;55.748;48.742;2022-11-15T08:23:27;98664.00;;;-3.15;65.12
65280;BME280;51878;55.748;48.742;2022-11-15T08:26:04;98620.59;;;-3.59;64.65
65280;BME280;51878;55.748;48.742;2022-11-15T08:28:32;98665.88;;;-3.40;65.84
65280;BME280;51878;55.748;48.742;2022-11-15T08:30:59;98645.63;;;-3.75;67.36
65280;BME280;51878;55.748;48.742;2022-11-15T08:33:26;98686.72;;;-3.35;66.33
65280;BME280;51878;55.748;48.742;2022-11-15T08:35:58;98607.34;;;-4.06;67.02
65280;BME280;51878;55.748;48.742;2022-11-15T08:38:28;98635.09;;;-4.23;67.11
65280;BME280;51878;55.748;48.742;2022-11-15T08:41:06;98676.09;;;-3.93;69.52
65280;BME280;51878;55.748;48.742;2022-11-15T08:43:33;98691.78;;;-3.90;69.59
65280;BME280;51878;55.748;48.742;2022-11-15T08:46:04;98678.69;;;-4.04;72.46
65280;BME280;51878;55.748;48.742;2022-11-15T08:48:33;98673.75;;;-4.09;71.72
65280;BME280;51878;55.748;48.742;2022-11-15T08:51:01;98645.00;;;-4.38;72.20
65280;BME280;51878;55.748;48.742;2022-11-15T08:53:28;98667.19;;;-4.27;71.92
65280;BME280;51878;55.748;48.742;2022-11-15T08:55:55;98686.59;;;-4.16;72.63
65280;BME280;51878;55.748;48.742;2022-11-15T08:58:25;98528.09;;;-5.02;73.92
65280;BME280;51878;55.748;48.742;2022-11-15T09:00:54;98682.66;;;-4.34;73.27
65280;BME280;51878;55.748;48.742;2022-11-15T09:03:24;98657.66;;;-4.54;74.42
65280;BME280;51878;55.748;48.742;2022-11-15T09:05:57;98629.38;;;-4.78;73.32
65280;BME280;51878;55.748;48.742;2022-11-15T09:08:25;98693.31;;;-4.23;74.09
65280;BME280;51878;55.748;48.742;2022-11-15T09:11:15;98691.09;;;-4.05;73.31
65280;BME280;51878;55.748;48.742;2022-11-15T09:13:44;98679.38;;;-4.13;71.99
65280;BME280;51878;55.748;48.742;2022-11-15T09:16:11;98689.69;;;-4.22;71.32
65280;BME280;51878;55.748;48.742;2022-11-15T09:18:39;98561.94;;;-4.83;71.44
65280;BME280;51878;55.748;48.742;2022-11-15T09:21:07;98660.75;;;-4.36;72.20
65280;BME280;51878;55.748;48.742;2022-11-15T09:23:34;98717.38;;;-3.90;72.89
65280;BME280;51878;55.748;48.742;2022-11-15T09:26:02;98711.34;;;-3.92;71.86
65280;BME280;51878;55.748;48.742;2022-11-15T09:28:30;98643.56;;;-4.54;72.59
65280;BME280;51878;55.748;48.742;2022-11-15T09:31:15;98662.44;;;-4.35;72.13
65280;BME280;51878;55.748;48.742;2022-11-15T09:33:47;98712.72;;;-4.11;72.34
65280;BME280;51878;55.748;48.742;2022-11-15T09:36:14;98692.44;;;-4.47;72.47
65280;BME280;51878;55.748;48.742;2022-11-15T09:38:41;98598.72;;;-5.17;74.25
65280;BME280;51878;55.748;48.742;2022-11-15T09:49:13;98727.53;;;-4.08;73.19
65280;BME280;51878;55.748;48.742;2022-11-15T09:51:45;98599.47;;;-4.78;72.90
65280;BME280;51878;55.748;48.742;2022-11-15T09:57:30;98604.91;;;-4.68;73.12
65280;BME280;51878;55.748;48.742;2022-11-15T10:03:08;98662.03;;;-4.42;72.63
65280;BME280;51878;55.748;48.742;2022-11-15T10:05:47;98704.88;;;-4.12;71.40
65280;BME280;51878;55.748;48.742;2022-11-15T10:08:50;98738.06;;;-3.71;70.47
65280;BME280;51878;55.748;48.742;2022-11-15T10:11:25;98661.06;;;-4.65;72.00
65280;BME280;51878;55.748;48.742;2022-11-15T10:22:28;98671.69;;;-4.78;69.58
65280;BME280;51878;55.748;48.742;2022-11-15T10:25:27;98735.72;;;-4.61;68.10
65280;BME280;51878;55.748;48.742;2022-11-15T10:28:21;98731.00;;;-4.32;69.01
65280;BME280;51878;55.748;48.742;2022-11-15T10:30:52;98721.00;;;-4.52;68.13
65280;BME280;51878;55.748;48.742;2022-11-15T10:46:35;98720.72;;;-4.61;65.38
65280;BME280;51878;55.748;48.742;2022-11-15T10:49:15;98728.03;;;-4.64;64.93
65280;BME280;51878;55.748;48.742;2022-11-15T10:51:49;98675.94;;;-5.01;64.99
65280;BME280;51878;55.748;48.742;2022-11-15T10:54:25;98754.38;;;-4.75;66.00
65280;BME280;51878;55.748;48.742;2022-11-15T10:56:57;98754.69;;;-4.93;66.73
65280;BME280;51878;55.748;48.742;2022-11-15T10:59:30;98660.13;;;-5.39;67.50
65280;BME280;51878;55.748;48.742;2022-11-15T11:02:36;98745.69;;;-5.03;68.41
65280;BME280;51878;55.748;48.742;2022-11-15T11:05:07;98629.47;;;-5.67;68.87
65280;BME280;51878;55.748;48.742;2022-11-15T11:07:57;98736.84;;;-5.02;67.78
65280;BME280;51878;55.748;48.742;2022-11-15T11:10:25;98677.34;;;-5.33;68.79
65280;BME280;51878;55.748;48.742;2022-11-15T11:13:23;98683.34;;;-5.57;69.33
65280;BME280;51878;55.748;48.742;2022-11-15T11:41:39;98751.59;;;-5.38;73.68
65280;BME280;51878;55.748;48.742;2022-11-15T11:47:32;98701.16;;;-5.73;74.64
65280;BME280;51878;55.748;48.742;2022-11-15T11:50:15;98789.34;;;-5.23;73.07
65280;BME280;51878;55.748;48.742;2022-11-15T11:52:58;98783.97;;;-5.22;72.68
65280;BME280;51878;55.748;48.742;2022-11-15T11:55:33;98726.97;;;-5.38;70.28
65280;BME280;51878;55.748;48.742;2022-11-15T12:01:04;98794.44;;;-5.20;70.06
65280;BME280;51878;55.748;48.742;2022-11-15T12:03:43;98730.75;;;-5.68;67.47
65280;BME280;51878;55.748;48.742;2022-11-15T12:06:33;98804.13;;;-5.33;67.81
65280;BME280;51878;55.748;48.742;2022-11-15T12:17:14;98720.03;;;-5.92;66.89
65280;BME280;51878;55.748;48.742;2022-11-15T12:19:42;98780.66;;;-5.51;67.46
65280;BME280;51878;55.748;48.742;2022-11-15T12:22:40;98811.31;;;-5.63;68.56
65280;BME280;51878;55.748;48.742;2022-11-15T12:25:22;98810.09;;;-5.57;68.76
65280;BME280;51878;55.748;48.742;2022-11-15T12:28:02;98813.03;;;-5.62;69.38
65280;BME280;51878;55.748;48.742;2022-11-15T12:33:44;98817.63;;;-5.51;70.00
65280;BME280;51878;55.748;48.742;2022-11-15T12:36:39;98811.38;;;-5.50;70.11
65280;BME280;51878;55.748;48.742;2022-11-15T12:39:10;98804.53;;;-5.79;71.27
65280;BME280;51878;55.748;48.742;2022-11-15T12:46:59;98833.59;;;-5.40;71.09
65280;BME280;51878;55.748;48.742;2022-11-15T13:02:43;98802.44;;;-5.74;70.41
65280;BME280;51878;55.748;48.742;2022-11-15T13:17:44;98768.69;;;-5.96;69.87
65280;BME280;51878;55.748;48.742;2022-11-15T13:30:52;98767.25;;;-6.15;70.12
65280;BME280;51878;55.748;48.742;2022-11-15T13:36:05;98818.75;;;-5.82;70.54
65280;BME280;51878;55.748;48.742;2022-11-15T13:38:35;98717.63;;;-6.50;70.36
65280;BME280;51878;55.748;48.742;2022-11-15T13:41:23;98777.53;;;-6.25;70.61
65280;BME280;51878;55.748;48.742;2022-11-15T13:43:52;98805.28;;;-6.05;70.39
65280;BME280;51878;55.748;48.742;2022-11-15T13:49:11;98846.63;;;-5.78;70.51
65280;BME280;51878;55.748;48.742;2022-11-15T13:52:18;98844.28;;;-5.83;70.44
65280;BME280;51878;55.748;48.742;2022-11-15T13:54:58;98704.72;;;-6.54;70.06
65280;BME280;51878;55.748;48.742;2022-11-15T13:57:39;98827.50;;;-5.94;69.73
65280;BME280;51878;55.748;48.742;2022-11-15T14:00:32;98858.09;;;-5.65;70.10
65280;BME280;51878;55.748;48.742;2022-11-15T14:03:28;98760.56;;;-6.20;70.33
65280;BME280;51878;55.748;48.742;2022-11-15T14:06:11;98777.22;;;-6.06;70.72
65280;BME280;51878;55.748;48.742;2022-11-15T14:11:28;98846.06;;;-5.69;70.19
65280;BME280;51878;55.748;48.742;2022-11-15T14:16:44;98788.41;;;-6.02;71.08
65280;BME280;51878;55.748;48.742;2022-11-15T14:22:16;98855.59;;;-5.53;71.45
65280;BME280;51878;55.748;48.742;2022-11-15T14:25:05;98857.22;;;-5.51;73.59
65280;BME280;51878;55.748;48.742;2022-11-15T14:27:34;98842.09;;;-5.76;74.05
65280;BME280;51878;55.748;48.742;2022-11-15T14:30:04;98700.06;;;-6.63;75.63
65280;BME280;51878;55.748;48.742;2022-11-15T14:32:50;98800.66;;;-6.01;76.37
65280;BME280;51878;55.748;48.742;2022-11-15T14:35:22;98739.06;;;-6.41;76.85
65280;BME280;51878;55.748;48.742;2022-11-15T14:37:52;98791.25;;;-6.05;76.88
65280;BME280;51878;55.748;48.742;2022-11-15T14:40:21;98784.19;;;-5.92;77.06
65280;BME280;51878;55.748;48.742;2022-11-15T14:42:49;98825.47;;;-5.64;73.36
65280;BME280;51878;55.748;48.742;2022-11-15T14:45:22;98668.59;;;-6.67;74.03
65280;BME280;51878;55.748;48.742;2022-11-15T14:47:54;98838.47;;;-5.61;73.93
65280;BME280;51878;55.748;48.742;2022-11-15T14:50:23;98749.13;;;-6.07;73.86
65280;BME280;51878;55.748;48.742;2022-11-15T14:52:52;98783.56;;;-5.95;73.58
65280;BME280;51878;55.748;48.742;2022-11-15T14:55:28;98636.72;;;-6.76;73.29
65280;BME280;51878;55.748;48.742;2022-11-15T14:57:58;98852.72;;;-5.63;74.26
65280;BME280;51878;55.748;48.742;2022-11-15T15:00:27;98846.75;;;-5.79;75.81
65280;BME280;51878;55.748;48.742;2022-11-15T15:03:01;98849.72;;;-5.71;76.82
65280;BME280;51878;55.748;48.742;2022-11-15T15:05:37;98796.31;;;-6.02;76.73
65280;BME280;51878;55.748;48.742;2022-11-15T15:08:05;98857.16;;;-5.64;76.35
65280;BME280;51878;55.748;48.742;2022-11-15T15:10:36;98678.91;;;-6.76;76.92
65280;BME280;51878;55.748;48.742;2022-11-15T15:13:20;98785.16;;;-6.20;77.60
65280;BME280;51878;55.748;48.742;2022-11-15T15:15:49;98751.47;;;-6.29;77.36
65280;BME280;51878;55.748;48.742;2022-11-15T15:18:19;98795.00;;;-5.82;76.70
65280;BME280;51878;55.748;48.742;2022-11-15T15:20:58;98853.44;;;-5.34;77.81
65280;BME280;51878;55.748;48.742;2022-11-15T15:24:04;98866.78;;;-5.23;75.92
65280;BME280;51878;55.748;48.742;2022-11-15T15:26:31;98848.78;;;-5.43;76.13
65280;BME280;51878;55.748;48.742;2022-11-15T15:29:03;98851.63;;;-5.46;75.84
65280;BME280;51878;55.748;48.742;2022-11-15T15:31:30;98868.31;;;-5.46;75.27
65280;BME280;51878;55.748;48.742;2022-11-15T15:33:57;98860.31;;;-5.31;75.67
65280;BME280;51878;55.748;48.742;2022-11-15T15:36:24;98840.31;;;-5.48;75.10
65280;BME280;51878;55.748;48.742;2022-11-15T15:38:51;98788.88;;;-5.83;74.67
65280;BME280;51878;55.748;48.742;2022-11-15T15:41:21;98848.28;;;-5.35;74.06
65280;BME280;51878;55.748;48.742;2022-11-15T15:43:50;98801.47;;;-5.73;72.54
65280;BME280;51878;55.748;48.742;2022-11-15T15:46:24;98791.28;;;-5.92;72.62
65280;BME280;51878;55.748;48.742;2022-11-15T15:48:51;98717.03;;;-6.40;70.55
65280;BME280;51878;55.748;48.742;2022-11-15T15:51:18;98796.13;;;-5.99;70.11
65280;BME280;51878;55.748;48.742;2022-11-15T15:53:47;98866.44;;;-5.44;70.49
65280;BME280;51878;55.748;48.742;2022-11-15T15:56:14;98687.13;;;-6.54;70.75
65280;BME280;51878;55.748;48.742;2022-11-15T15:58:41;98858.63;;;-5.32;69.90
65280;BME280;51878;55.748;48.742;2022-11-15T16:01:08;98842.22;;;-5.50;68.73
65280;BME280;51878;55.748;48.742;2022-11-15T16:03:35;98872.38;;;-5.27;68.36
65280;BME280;51878;55.748;48.742;2022-11-15T16:06:03;98847.13;;;-5.31;68.48